sensor_id;sensor_type;location;lat;lon;timestamp;P1;durP1;ratioP1;P2;durP2;ratioP2
41966;SDS011;27656;53.068;8.818;2024-03-06T00:02:20;15.80;;;9.17;;
41966;SDS011;27656;53.068;8.818;2024-03-06T00:04:47;14.73;;;8.50;;
41966;SDS011;27656;53.068;8.818;2024-03-06T00:07:13;16.43;;;8.97;;
41966;SDS011;27656;53.068;8.818;2024-03-06T00:09:40;16.53;;;9.33;;
41966;SDS011;27656;53.068;8.818;2024-03-06T00:12:06;16.50;;;9.53;;
41966;SDS011;27656;53.068;8.818;2024-03-06T00:14:33;16.90;;;8.70;;
41966;SDS011;27656;53.068;8.818;2024-03-06T00:17:02;14.73;;;8.73;;
41966;SDS011;27656;53.068;8.818;2024-03-06T00:19:31;18.00;;;9.37;;
41966;SDS011;27656;53.068;8.818;2024-03-06T00:21:57;14.30;;;8.97;;
41966;SDS011;27656;53.068;8.818;2024-03-06T00:24:24;16.23;;;9.20;;
41966;SDS011;27656;53.068;8.818;2024-03-06T00:26:51;19.60;;;9.23;;
41966;SDS011;27656;53.068;8.818;2024-03-06T00:29:18;14.53;;;8.97;;
41966;SDS011;27656;53.068;8.818;2024-03-06T00:31:44;16.37;;;9.23;;
41966;SDS011;27656;53.068;8.818;2024-03-06T00:34:12;21.53;;;9.40;;
41966;SDS011;27656;53.068;8.818;2024-03-06T00:36:42;14.63;;;9.50;;
41966;SDS011;27656;53.068;8.818;2024-03-06T00:39:10;17.47;;;9.30;;
41966;SDS011;27656;53.068;8.818;2024-03-06T00:41:37;16.10;;;9.20;;
41966;SDS011;27656;53.068;8.818;2024-03-06T00:44:04;16.57;;;9.63;;
41966;SDS011;27656;53.068;8.818;2024-03-06T00:46:32;17.53;;;9.63;;
41966;SDS011;27656;53.068;8.818;2024-03-06T00:48:58;14.87;;;9.10;;
41966;SDS011;27656;53.068;8.818;2024-03-06T00:51:25;17.37;;;9.03;;
41966;SDS011;27656;53.068;8.818;2024-03-06T00:54:06;13.83;;;9.33;;
41966;SDS011;27656;53.068;8.818;2024-03-06T00:56:36;15.50;;;9.53;;
41966;SDS011;27656;53.068;8.818;2024-03-06T00:59:04;13.37;;;9.03;;
41966;SDS011;27656;53.068;8.818;2024-03-06T01:01:30;14.20;;;9.27;;
41966;SDS011;27656;53.068;8.818;2024-03-06T01:03:57;15.93;;;9.37;;
41966;SDS011;27656;53.068;8.818;2024-03-06T01:06:24;14.43;;;8.83;;
41966;SDS011;27656;53.068;8.818;2024-03-06T01:08:50;16.13;;;10.57;;
41966;SDS011;27656;53.068;8.818;2024-03-06T01:11:17;14.70;;;9.50;;
41966;SDS011;27656;53.068;8.818;2024-03-06T01:13:43;17.10;;;9.40;;
41966;SDS011;27656;53.068;8.818;2024-03-06T01:16:10;16.97;;;9.53;;
41966;SDS011;27656;53.068;8.818;2024-03-06T01:18:36;19.33;;;9.77;;
41966;SDS011;27656;53.068;8.818;2024-03-06T01:21:03;17.60;;;10.03;;
41966;SDS011;27656;53.068;8.818;2024-03-06T01:23:29;18.60;;;9.87;;
41966;SDS011;27656;53.068;8.818;2024-03-06T01:25:56;19.43;;;10.33;;
41966;SDS011;27656;53.068;8.818;2024-03-06T01:28:22;19.07;;;9.70;;
41966;SDS011;27656;53.068;8.818;2024-03-06T01:30:49;21.20;;;10.87;;
41966;SDS011;27656;53.068;8.818;2024-03-06T01:33:15;17.23;;;10.03;;
41966;SDS011;27656;53.068;8.818;2024-03-06T01:35:42;16.47;;;10.07;;
41966;SDS011;27656;53.068;8.818;2024-03-06T01:38:08;17.53;;;9.83;;
41966;SDS011;27656;53.068;8.818;2024-03-06T01:40:37;17.27;;;10.03;;
41966;SDS011;27656;53.068;8.818;2024-03-06T01:43:03;18.30;;;10.00;;
41966;SDS011;27656;53.068;8.818;2024-03-06T01:45:30;17.73;;;9.37;;
41966;SDS011;27656;53.068;8.818;2024-03-06T01:47:58;18.30;;;9.87;;
41966;SDS011;27656;53.068;8.818;2024-03-06T01:50:25;17.87;;;10.37;;
41966;SDS011;27656;53.068;8.818;2024-03-06T01:52:52;15.33;;;9.30;;
41966;SDS011;27656;53.068;8.818;2024-03-06T01:55:18;20.70;;;10.03;;
41966;SDS011;27656;53.068;8.818;2024-03-06T01:57:45;22.33;;;10.77;;
41966;SDS011;27656;53.068;8.818;2024-03-06T02:00:12;17.77;;;9.87;;
41966;SDS011;27656;53.068;8.818;2024-03-06T02:02:41;13.87;;;9.97;;
41966;SDS011;27656;53.068;8.818;2024-03-06T02:05:08;16.50;;;10.13;;
41966;SDS011;27656;53.068;8.818;2024-03-06T02:07:36;18.90;;;10.80;;
41966;SDS011;27656;53.068;8.818;2024-03-06T02:10:07;15.20;;;9.63;;
41966;SDS011;27656;53.068;8.818;2024-03-06T02:12:36;17.57;;;10.50;;
41966;SDS011;27656;53.068;8.818;2024-03-06T02:15:03;17.57;;;10.63;;
41966;SDS011;27656;53.068;8.818;2024-03-06T02:17:30;17.80;;;9.97;;
41966;SDS011;27656;53.068;8.818;2024-03-06T02:19:57;14.83;;;9.90;;
41966;SDS011;27656;53.068;8.818;2024-03-06T02:22:26;20.37;;;10.70;;
41966;SDS011;27656;53.068;8.818;2024-03-06T02:24:53;18.80;;;10.87;;
41966;SDS011;27656;53.068;8.818;2024-03-06T02:27:19;16.00;;;9.83;;
41966;SDS011;27656;53.068;8.818;2024-03-06T02:29:46;19.77;;;9.77;;
41966;SDS011;27656;53.068;8.818;2024-03-06T02:32:12;16.80;;;10.17;;
41966;SDS011;27656;53.068;8.818;2024-03-06T02:34:44;16.40;;;10.13;;
41966;SDS011;27656;53.068;8.818;2024-03-06T02:37:11;21.83;;;10.27;;
41966;SDS011;27656;53.068;8.818;2024-03-06T02:39:37;20.10;;;10.53;;
41966;SDS011;27656;53.068;8.818;2024-03-06T02:42:03;17.63;;;10.10;;
41966;SDS011;27656;53.068;8.818;2024-03-06T02:44:30;20.33;;;10.40;;
41966;SDS011;27656;53.068;8.818;2024-03-06T02:46:57;19.90;;;11.30;;
41966;SDS011;27656;53.068;8.818;2024-03-06T02:49:23;18.10;;;10.30;;
41966;SDS011;27656;53.068;8.818;2024-03-06T02:51:50;19.80;;;10.70;;
41966;SDS011;27656;53.068;8.818;2024-03-06T02:54:17;19.83;;;10.93;;
41966;SDS011;27656;53.068;8.818;2024-03-06T02:56:44;19.83;;;9.83;;
41966;SDS011;27656;53.068;8.818;2024-03-06T02:59:10;18.30;;;10.83;;
41966;SDS011;27656;53.068;8.818;2024-03-06T03:01:37;16.97;;;11.13;;
41966;SDS011;27656;53.068;8.818;2024-03-06T03:04:05;21.90;;;9.97;;
41966;SDS011;27656;53.068;8.818;2024-03-06T03:06:33;17.07;;;10.53;;
41966;SDS011;27656;53.068;8.818;2024-03-06T03:09:00;16.43;;;10.20;;
41966;SDS011;27656;53.068;8.818;2024-03-06T03:11:27;17.33;;;10.73;;
41966;SDS011;27656;53.068;8.818;2024-03-06T03:13:54;17.17;;;10.70;;
41966;SDS011;27656;53.068;8.818;2024-03-06T03:16:20;19.63;;;9.90;;
41966;SDS011;27656;53.068;8.818;2024-03-06T03:18:47;20.20;;;11.20;;
41966;SDS011;27656;53.068;8.818;2024-03-06T03:21:14;18.80;;;9.93;;
41966;SDS011;27656;53.068;8.818;2024-03-06T03:23:41;16.60;;;10.60;;
41966;SDS011;27656;53.068;8.818;2024-03-06T03:26:08;18.33;;;10.73;;
41966;SDS011;27656;53.068;8.818;2024-03-06T03:28:37;21.17;;;10.27;;
41966;SDS011;27656;53.068;8.818;2024-03-06T03:31:09;18.60;;;10.47;;
41966;SDS011;27656;53.068;8.818;2024-03-06T03:33:39;18.73;;;10.77;;
41966;SDS011;27656;53.068;8.818;2024-03-06T03:36:07;17.27;;;11.00;;
41966;SDS011;27656;53.068;8.818;2024-03-06T03:38:35;19.47;;;10.37;;
41966;SDS011;27656;53.068;8.818;2024-03-06T03:41:08;16.80;;;9.90;;
41966;SDS011;27656;53.068;8.818;2024-03-06T03:43:35;17.43;;;10.40;;
41966;SDS011;27656;53.068;8.818;2024-03-06T03:46:02;16.80;;;11.20;;
41966;SDS011;27656;53.068;8.818;2024-03-06T03:48:30;17.73;;;10.57;;
41966;SDS011;27656;53.068;8.818;2024-03-06T03:50:57;18.73;;;11.00;;
41966;SDS011;27656;53.068;8.818;2024-03-06T03:53:24;20.87;;;10.90;;
41966;SDS011;27656;53.068;8.818;2024-03-06T03:55:50;22.90;;;11.40;;
41966;SDS011;27656;53.068;8.818;2024-03-06T03:58:17;17.43;;;10.93;;
41966;SDS011;27656;53.068;8.818;2024-03-06T04:00:44;19.27;;;10.53;;
41966;SDS011;27656;53.068;8.818;2024-03-06T04:03:10;16.93;;;10.13;;
41966;SDS011;27656;53.068;8.818;2024-03-06T04:05:37;16.40;;;10.70;;
41966;SDS011;27656;53.068;8.818;2024-03-06T04:08:03;17.63;;;10.13;;
41966;SDS011;27656;53.068;8.818;2024-03-06T04:10:32;20.20;;;10.93;;
41966;SDS011;27656;53.068;8.818;2024-03-06T04:12:59;20.37;;;10.67;;
41966;SDS011;27656;53.068;8.818;2024-03-06T04:15:26;19.57;;;11.27;;
41966;SDS011;27656;53.068;8.818;2024-03-06T04:17:53;19.27;;;12.17;;
41966;SDS011;27656;53.068;8.818;2024-03-06T04:20:19;20.47;;;11.23;;
41966;SDS011;27656;53.068;8.818;2024-03-06T04:22:46;20.60;;;11.87;;
41966;SDS011;27656;53.068;8.818;2024-03-06T04:25:14;18.10;;;11.10;;
41966;SDS011;27656;53.068;8.818;2024-03-06T04:27:40;18.07;;;10.63;;
41966;SDS011;27656;53.068;8.818;2024-03-06T04:30:07;26.40;;;11.27;;
41966;SDS011;27656;53.068;8.818;2024-03-06T04:32:34;19.00;;;11.63;;
41966;SDS011;27656;53.068;8.818;2024-03-06T04:35:00;20.83;;;11.60;;
41966;SDS011;27656;53.068;8.818;2024-03-06T04:37:27;18.03;;;10.57;;
41966;SDS011;27656;53.068;8.818;2024-03-06T04:39:55;18.70;;;11.07;;
41966;SDS011;27656;53.068;8.818;2024-03-06T04:42:22;20.37;;;11.60;;
41966;SDS011;27656;53.068;8.818;2024-03-06T04:44:48;20.20;;;11.00;;
41966;SDS011;27656;53.068;8.818;2024-03-06T04:47:15;18.20;;;11.50;;
41966;SDS011;27656;53.068;8.818;2024-03-06T04:49:41;17.73;;;11.10;;
41966;SDS011;27656;53.068;8.818;2024-03-06T04:52:08;19.33;;;11.77;;
41966;SDS011;27656;53.068;8.818;2024-03-06T04:54:35;17.73;;;11.20;;
41966;SDS011;27656;53.068;8.818;2024-03-06T04:57:01;19.13;;;11.80;;
41966;SDS011;27656;53.068;8.818;2024-03-06T04:59:28;21.30;;;11.07;;
41966;SDS011;27656;53.068;8.818;2024-03-06T05:01:55;19.33;;;10.40;;
41966;SDS011;27656;53.068;8.818;2024-03-06T05:04:21;19.43;;;11.30;;
41966;SDS011;27656;53.068;8.818;2024-03-06T05:07:05;21.30;;;11.03;;
41966;SDS011;27656;53.068;8.818;2024-03-06T05:09:49;19.53;;;11.17;;
41966;SDS011;27656;53.068;8.818;2024-03-06T05:12:33;18.63;;;11.30;;
41966;SDS011;27656;53.068;8.818;2024-03-06T05:15:18;17.47;;;11.03;;
41966;SDS011;27656;53.068;8.818;2024-03-06T05:18:03;19.83;;;10.87;;
41966;SDS011;27656;53.068;8.818;2024-03-06T05:20:47;20.23;;;10.63;;
41966;SDS011;27656;53.068;8.818;2024-03-06T05:23:31;18.93;;;11.63;;
41966;SDS011;27656;53.068;8.818;2024-03-06T05:26:15;20.93;;;11.47;;
41966;SDS011;27656;53.068;8.818;2024-03-06T05:28:59;20.13;;;10.97;;
41966;SDS011;27656;53.068;8.818;2024-03-06T05:31:43;21.43;;;10.90;;
41966;SDS011;27656;53.068;8.818;2024-03-06T05:34:27;20.90;;;10.67;;
41966;SDS011;27656;53.068;8.818;2024-03-06T05:37:11;20.40;;;10.90;;
41966;SDS011;27656;53.068;8.818;2024-03-06T05:39:55;20.63;;;11.47;;
41966;SDS011;27656;53.068;8.818;2024-03-06T05:42:39;20.30;;;10.90;;
41966;SDS011;27656;53.068;8.818;2024-03-06T05:45:23;22.67;;;12.23;;
41966;SDS011;27656;53.068;8.818;2024-03-06T05:48:07;20.23;;;10.83;;
41966;SDS011;27656;53.068;8.818;2024-03-06T05:50:52;18.77;;;10.90;;
41966;SDS011;27656;53.068;8.818;2024-03-06T05:53:39;19.93;;;11.47;;
41966;SDS011;27656;53.068;8.818;2024-03-06T05:56:26;19.40;;;11.40;;
41966;SDS011;27656;53.068;8.818;2024-03-06T05:59:10;17.70;;;10.10;;
41966;SDS011;27656;53.068;8.818;2024-03-06T06:01:36;18.87;;;9.90;;
41966;SDS011;27656;53.068;8.818;2024-03-06T06:04:03;21.70;;;11.20;;
41966;SDS011;27656;53.068;8.818;2024-03-06T06:06:33;19.30;;;11.10;;
41966;SDS011;27656;53.068;8.818;2024-03-06T06:08:59;17.47;;;10.47;;
41966;SDS011;27656;53.068;8.818;2024-03-06T06:11:26;19.77;;;11.70;;
41966;SDS011;27656;53.068;8.818;2024-03-06T06:13:52;20.80;;;12.37;;
41966;SDS011;27656;53.068;8.818;2024-03-06T06:16:19;20.13;;;10.80;;
41966;SDS011;27656;53.068;8.818;2024-03-06T06:18:46;23.30;;;11.10;;
41966;SDS011;27656;53.068;8.818;2024-03-06T06:21:12;20.33;;;11.77;;
41966;SDS011;27656;53.068;8.818;2024-03-06T06:23:39;24.27;;;12.00;;
41966;SDS011;27656;53.068;8.818;2024-03-06T06:26:05;23.97;;;11.87;;
41966;SDS011;27656;53.068;8.818;2024-03-06T06:28:32;19.83;;;10.87;;
41966;SDS011;27656;53.068;8.818;2024-03-06T06:30:58;17.47;;;11.03;;
41966;SDS011;27656;53.068;8.818;2024-03-06T06:33:25;20.27;;;10.90;;
41966;SDS011;27656;53.068;8.818;2024-03-06T06:35:51;19.30;;;11.50;;
41966;SDS011;27656;53.068;8.818;2024-03-06T06:38:18;19.37;;;10.90;;
41966;SDS011;27656;53.068;8.818;2024-03-06T06:40:44;20.67;;;10.60;;
41966;SDS011;27656;53.068;8.818;2024-03-06T06:43:11;17.93;;;10.50;;
41966;SDS011;27656;53.068;8.818;2024-03-06T06:45:37;23.70;;;11.10;;
41966;SDS011;27656;53.068;8.818;2024-03-06T06:48:04;19.97;;;11.30;;
41966;SDS011;27656;53.068;8.818;2024-03-06T06:50:31;19.53;;;11.30;;
41966;SDS011;27656;53.068;8.818;2024-03-06T06:52:59;23.67;;;11.43;;
41966;SDS011;27656;53.068;8.818;2024-03-06T06:55:26;21.10;;;10.90;;
41966;SDS011;27656;53.068;8.818;2024-03-06T06:57:53;18.37;;;11.20;;
41966;SDS011;27656;53.068;8.818;2024-03-06T07:00:20;18.90;;;10.97;;
41966;SDS011;27656;53.068;8.818;2024-03-06T07:02:49;18.40;;;11.10;;
41966;SDS011;27656;53.068;8.818;2024-03-06T07:05:15;22.43;;;11.97;;
41966;SDS011;27656;53.068;8.818;2024-03-06T07:07:42;20.13;;;10.73;;
41966;SDS011;27656;53.068;8.818;2024-03-06T07:10:09;21.07;;;11.33;;
41966;SDS011;27656;53.068;8.818;2024-03-06T07:12:36;19.77;;;11.07;;
41966;SDS011;27656;53.068;8.818;2024-03-06T07:15:03;21.20;;;11.60;;
41966;SDS011;27656;53.068;8.818;2024-03-06T07:17:30;19.30;;;10.87;;
41966;SDS011;27656;53.068;8.818;2024-03-06T07:19:56;18.87;;;11.10;;
41966;SDS011;27656;53.068;8.818;2024-03-06T07:22:23;21.40;;;11.43;;
41966;SDS011;27656;53.068;8.818;2024-03-06T07:24:49;19.17;;;10.93;;
41966;SDS011;27656;53.068;8.818;2024-03-06T07:27:16;22.20;;;10.77;;
41966;SDS011;27656;53.068;8.818;2024-03-06T07:29:43;22.43;;;11.67;;
41966;SDS011;27656;53.068;8.818;2024-03-06T07:32:10;21.77;;;11.93;;
41966;SDS011;27656;53.068;8.818;2024-03-06T07:34:37;20.83;;;11.13;;
41966;SDS011;27656;53.068;8.818;2024-03-06T07:37:04;19.73;;;11.87;;
41966;SDS011;27656;53.068;8.818;2024-03-06T07:39:31;23.43;;;11.40;;
41966;SDS011;27656;53.068;8.818;2024-03-06T07:41:58;20.80;;;12.00;;
41966;SDS011;27656;53.068;8.818;2024-03-06T07:44:25;18.20;;;11.00;;
41966;SDS011;27656;53.068;8.818;2024-03-06T07:46:51;20.63;;;11.47;;
41966;SDS011;27656;53.068;8.818;2024-03-06T07:49:20;16.93;;;10.87;;
41966;SDS011;27656;53.068;8.818;2024-03-06T07:51:48;18.27;;;11.53;;
41966;SDS011;27656;53.068;8.818;2024-03-06T07:54:14;21.67;;;11.50;;
41966;SDS011;27656;53.068;8.818;2024-03-06T07:56:41;18.97;;;10.87;;
41966;SDS011;27656;53.068;8.818;2024-03-06T07:59:08;20.27;;;11.73;;
41966;SDS011;27656;53.068;8.818;2024-03-06T08:01:35;24.07;;;12.23;;
41966;SDS011;27656;53.068;8.818;2024-03-06T08:04:01;20.00;;;11.57;;
41966;SDS011;27656;53.068;8.818;2024-03-06T08:06:28;21.37;;;12.00;;
41966;SDS011;27656;53.068;8.818;2024-03-06T08:08:55;20.67;;;11.50;;
41966;SDS011;27656;53.068;8.818;2024-03-06T08:11:24;21.30;;;12.13;;
41966;SDS011;27656;53.068;8.818;2024-03-06T08:13:56;22.13;;;12.40;;
41966;SDS011;27656;53.068;8.818;2024-03-06T08:16:24;21.67;;;12.10;;
41966;SDS011;27656;53.068;8.818;2024-03-06T08:18:51;18.67;;;11.70;;
41966;SDS011;27656;53.068;8.818;2024-03-06T08:21:17;20.43;;;11.60;;
41966;SDS011;27656;53.068;8.818;2024-03-06T08:23:45;22.77;;;11.80;;
41966;SDS011;27656;53.068;8.818;2024-03-06T08:26:13;21.37;;;11.50;;
41966;SDS011;27656;53.068;8.818;2024-03-06T08:28:40;19.70;;;11.93;;
41966;SDS011;27656;53.068;8.818;2024-03-06T08:31:06;21.43;;;11.53;;
41966;SDS011;27656;53.068;8.818;2024-03-06T08:33:34;18.50;;;11.33;;
41966;SDS011;27656;53.068;8.818;2024-03-06T08:36:01;18.63;;;10.50;;
41966;SDS011;27656;53.068;8.818;2024-03-06T08:38:28;22.87;;;11.77;;
41966;SDS011;27656;53.068;8.818;2024-03-06T08:40:55;19.97;;;11.50;;
41966;SDS011;27656;53.068;8.818;2024-03-06T08:43:21;17.70;;;11.17;;
41966;SDS011;27656;53.068;8.818;2024-03-06T08:45:48;20.93;;;11.97;;
41966;SDS011;27656;53.068;8.818;2024-03-06T08:48:14;17.87;;;10.93;;
41966;SDS011;27656;53.068;8.818;2024-03-06T08:50:41;19.00;;;11.53;;
41966;SDS011;27656;53.068;8.818;2024-03-06T08:53:08;19.33;;;10.80;;
41966;SDS011;27656;53.068;8.818;2024-03-06T08:55:35;18.83;;;11.33;;
41966;SDS011;27656;53.068;8.818;2024-03-06T08:58:02;18.57;;;11.27;;
41966;SDS011;27656;53.068;8.818;2024-03-06T09:00:28;16.33;;;10.60;;
41966;SDS011;27656;53.068;8.818;2024-03-06T09:02:55;21.80;;;11.10;;
41966;SDS011;27656;53.068;8.818;2024-03-06T09:05:22;19.27;;;11.07;;
41966;SDS011;27656;53.068;8.818;2024-03-06T09:07:48;18.87;;;10.73;;
41966;SDS011;27656;53.068;8.818;2024-03-06T09:10:15;19.80;;;11.17;;
41966;SDS011;27656;53.068;8.818;2024-03-06T09:12:41;20.90;;;11.47;;
41966;SDS011;27656;53.068;8.818;2024-03-06T09:15:08;17.47;;;10.70;;
41966;SDS011;27656;53.068;8.818;2024-03-06T09:17:35;20.03;;;11.50;;
41966;SDS011;27656;53.068;8.818;2024-03-06T09:20:02;18.23;;;11.27;;
41966;SDS011;27656;53.068;8.818;2024-03-06T09:22:40;21.10;;;11.57;;
41966;SDS011;27656;53.068;8.818;2024-03-06T09:25:07;20.97;;;11.73;;
41966;SDS011;27656;53.068;8.818;2024-03-06T09:27:34;22.10;;;11.67;;
41966;SDS011;27656;53.068;8.818;2024-03-06T09:30:00;16.93;;;10.43;;
41966;SDS011;27656;53.068;8.818;2024-03-06T09:32:27;19.00;;;11.57;;
41966;SDS011;27656;53.068;8.818;2024-03-06T09:34:53;19.03;;;10.80;;
41966;SDS011;27656;53.068;8.818;2024-03-06T09:37:20;19.27;;;11.67;;
41966;SDS011;27656;53.068;8.818;2024-03-06T09:39:46;20.30;;;12.27;;
41966;SDS011;27656;53.068;8.818;2024-03-06T09:42:14;21.30;;;11.97;;
41966;SDS011;27656;53.068;8.818;2024-03-06T09:44:41;21.00;;;12.43;;
41966;SDS011;27656;53.068;8.818;2024-03-06T09:47:08;17.77;;;11.50;;
41966;SDS011;27656;53.068;8.818;2024-03-06T09:49:41;20.13;;;11.50;;
41966;SDS011;27656;53.068;8.818;2024-03-06T09:52:09;19.67;;;11.30;;
41966;SDS011;27656;53.068;8.818;2024-03-06T09:54:37;19.53;;;11.03;;
41966;SDS011;27656;53.068;8.818;2024-03-06T09:57:05;18.87;;;11.30;;
41966;SDS011;27656;53.068;8.818;2024-03-06T09:59:32;20.57;;;11.47;;
41966;SDS011;27656;53.068;8.818;2024-03-06T10:02:00;18.40;;;11.23;;
41966;SDS011;27656;53.068;8.818;2024-03-06T10:04:32;18.77;;;12.37;;
41966;SDS011;27656;53.068;8.818;2024-03-06T10:07:00;23.47;;;11.57;;
41966;SDS011;27656;53.068;8.818;2024-03-06T10:09:29;22.57;;;12.40;;
41966;SDS011;27656;53.068;8.818;2024-03-06T10:11:57;20.77;;;11.53;;
41966;SDS011;27656;53.068;8.818;2024-03-06T10:14:27;21.27;;;11.70;;
41966;SDS011;27656;53.068;8.818;2024-03-06T10:16:55;19.77;;;11.77;;
41966;SDS011;27656;53.068;8.818;2024-03-06T10:19:27;21.07;;;11.87;;
41966;SDS011;27656;53.068;8.818;2024-03-06T10:21:55;20.57;;;11.87;;
41966;SDS011;27656;53.068;8.818;2024-03-06T10:26:57;19.57;;;11.80;;
41966;SDS011;27656;53.068;8.818;2024-03-06T10:29:28;20.73;;;12.57;;
41966;SDS011;27656;53.068;8.818;2024-03-06T10:31:56;18.43;;;11.53;;
41966;SDS011;27656;53.068;8.818;2024-03-06T10:34:25;21.33;;;12.00;;
41966;SDS011;27656;53.068;8.818;2024-03-06T10:36:56;21.03;;;11.40;;
41966;SDS011;27656;53.068;8.818;2024-03-06T10:39:24;21.67;;;12.90;;
41966;SDS011;27656;53.068;8.818;2024-03-06T10:41:51;23.33;;;12.63;;
41966;SDS011;27656;53.068;8.818;2024-03-06T10:44:21;24.73;;;12.70;;
41966;SDS011;27656;53.068;8.818;2024-03-06T10:46:59;19.50;;;12.10;;
41966;SDS011;27656;53.068;8.818;2024-03-06T10:49:27;25.83;;;13.53;;
41966;SDS011;27656;53.068;8.818;2024-03-06T10:52:02;18.90;;;12.00;;
41966;SDS011;27656;53.068;8.818;2024-03-06T10:54:33;22.37;;;12.53;;
41966;SDS011;27656;53.068;8.818;2024-03-06T10:57:03;20.83;;;13.23;;
41966;SDS011;27656;53.068;8.818;2024-03-06T10:59:30;24.30;;;13.07;;
41966;SDS011;27656;53.068;8.818;2024-03-06T11:01:58;22.70;;;13.67;;
41966;SDS011;27656;53.068;8.818;2024-03-06T11:04:28;23.10;;;12.73;;
41966;SDS011;27656;53.068;8.818;2024-03-06T11:06:56;22.07;;;13.67;;
41966;SDS011;27656;53.068;8.818;2024-03-06T11:09:26;24.83;;;14.40;;
41966;SDS011;27656;53.068;8.818;2024-03-06T11:11:55;23.03;;;14.17;;
41966;SDS011;27656;53.068;8.818;2024-03-06T11:14:23;23.80;;;14.63;;
41966;SDS011;27656;53.068;8.818;2024-03-06T11:19:30;25.80;;;14.87;;
41966;SDS011;27656;53.068;8.818;2024-03-06T11:21:58;23.83;;;13.70;;
41966;SDS011;27656;53.068;8.818;2024-03-06T11:24:32;27.23;;;14.33;;
41966;SDS011;27656;53.068;8.818;2024-03-06T11:27:00;28.20;;;14.73;;
41966;SDS011;27656;53.068;8.818;2024-03-06T11:30:02;25.13;;;14.63;;
41966;SDS011;27656;53.068;8.818;2024-03-06T11:32:37;25.13;;;14.17;;
41966;SDS011;27656;53.068;8.818;2024-03-06T11:35:05;21.80;;;13.27;;
41966;SDS011;27656;53.068;8.818;2024-03-06T11:37:33;25.40;;;13.37;;
41966;SDS011;27656;53.068;8.818;2024-03-06T11:40:01;19.13;;;12.90;;
41966;SDS011;27656;53.068;8.818;2024-03-06T11:42:34;21.00;;;13.10;;
41966;SDS011;27656;53.068;8.818;2024-03-06T11:45:17;22.97;;;13.80;;
41966;SDS011;27656;53.068;8.818;2024-03-06T11:50:28;18.83;;;12.10;;
41966;SDS011;27656;53.068;8.818;2024-03-06T11:52:59;19.73;;;13.10;;
41966;SDS011;27656;53.068;8.818;2024-03-06T11:55:25;23.17;;;13.43;;
41966;SDS011;27656;53.068;8.818;2024-03-06T11:57:52;20.57;;;13.10;;
41966;SDS011;27656;53.068;8.818;2024-03-06T12:00:22;20.83;;;13.00;;
41966;SDS011;27656;53.068;8.818;2024-03-06T12:02:52;21.93;;;13.23;;
41966;SDS011;27656;53.068;8.818;2024-03-06T12:05:19;22.93;;;12.67;;
41966;SDS011;27656;53.068;8.818;2024-03-06T12:07:46;22.63;;;13.03;;
41966;SDS011;27656;53.068;8.818;2024-03-06T12:10:13;24.60;;;13.03;;
41966;SDS011;27656;53.068;8.818;2024-03-06T12:12:40;19.07;;;12.07;;
41966;SDS011;27656;53.068;8.818;2024-03-06T12:15:11;22.37;;;11.80;;
41966;SDS011;27656;53.068;8.818;2024-03-06T12:17:46;19.17;;;11.70;;
41966;SDS011;27656;53.068;8.818;2024-03-06T12:20:16;19.23;;;11.17;;
41966;SDS011;27656;53.068;8.818;2024-03-06T12:22:49;22.30;;;12.17;;
41966;SDS011;27656;53.068;8.818;2024-03-06T12:25:21;16.80;;;11.27;;
41966;SDS011;27656;53.068;8.818;2024-03-06T12:27:49;18.37;;;11.03;;
41966;SDS011;27656;53.068;8.818;2024-03-06T12:30:19;21.13;;;11.20;;
41966;SDS011;27656;53.068;8.818;2024-03-06T12:33:05;22.27;;;12.33;;
41966;SDS011;27656;53.068;8.818;2024-03-06T12:35:32;18.53;;;11.30;;
41966;SDS011;27656;53.068;8.818;2024-03-06T12:37:58;19.53;;;11.83;;
41966;SDS011;27656;53.068;8.818;2024-03-06T12:40:25;18.87;;;11.77;;
41966;SDS011;27656;53.068;8.818;2024-03-06T12:42:54;22.37;;;12.10;;
41966;SDS011;27656;53.068;8.818;2024-03-06T12:45:21;18.97;;;11.43;;
41966;SDS011;27656;53.068;8.818;2024-03-06T12:47:48;22.70;;;11.90;;
41966;SDS011;27656;53.068;8.818;2024-03-06T12:50:16;20.07;;;12.00;;
41966;SDS011;27656;53.068;8.818;2024-03-06T12:52:42;19.03;;;12.20;;
41966;SDS011;27656;53.068;8.818;2024-03-06T12:55:12;21.80;;;13.33;;
41966;SDS011;27656;53.068;8.818;2024-03-06T12:57:40;22.97;;;11.83;;
41966;SDS011;27656;53.068;8.818;2024-03-06T13:00:06;22.10;;;12.00;;
41966;SDS011;27656;53.068;8.818;2024-03-06T13:02:42;23.13;;;11.27;;
41966;SDS011;27656;53.068;8.818;2024-03-06T13:05:10;21.13;;;11.33;;
41966;SDS011;27656;53.068;8.818;2024-03-06T13:07:37;17.37;;;11.20;;
41966;SDS011;27656;53.068;8.818;2024-03-06T13:10:04;20.47;;;11.40;;
41966;SDS011;27656;53.068;8.818;2024-03-06T13:12:34;20.43;;;12.60;;
41966;SDS011;27656;53.068;8.818;2024-03-06T13:15:00;25.63;;;14.07;;
41966;SDS011;27656;53.068;8.818;2024-03-06T13:17:26;30.10;;;14.47;;
41966;SDS011;27656;53.068;8.818;2024-03-06T13:19:55;21.00;;;12.17;;
41966;SDS011;27656;53.068;8.818;2024-03-06T13:22:22;19.90;;;12.77;;
41966;SDS011;27656;53.068;8.818;2024-03-06T13:24:48;23.40;;;12.70;;
41966;SDS011;27656;53.068;8.818;2024-03-06T13:27:16;26.33;;;13.00;;
41966;SDS011;27656;53.068;8.818;2024-03-06T13:29:43;27.10;;;14.00;;
41966;SDS011;27656;53.068;8.818;2024-03-06T13:32:10;23.50;;;14.10;;
41966;SDS011;27656;53.068;8.818;2024-03-06T13:34:36;24.47;;;14.90;;
41966;SDS011;27656;53.068;8.818;2024-03-06T13:37:03;22.57;;;14.13;;
41966;SDS011;27656;53.068;8.818;2024-03-06T13:39:29;22.90;;;13.40;;
41966;SDS011;27656;53.068;8.818;2024-03-06T13:41:56;22.80;;;13.67;;
41966;SDS011;27656;53.068;8.818;2024-03-06T13:44:22;26.37;;;13.97;;
41966;SDS011;27656;53.068;8.818;2024-03-06T13:46:49;23.00;;;13.87;;
41966;SDS011;27656;53.068;8.818;2024-03-06T13:49:36;23.77;;;13.93;;
41966;SDS011;27656;53.068;8.818;2024-03-06T13:52:06;24.10;;;12.83;;
41966;SDS011;27656;53.068;8.818;2024-03-06T13:54:34;22.33;;;14.03;;
41966;SDS011;27656;53.068;8.818;2024-03-06T13:57:00;19.13;;;12.87;;
41966;SDS011;27656;53.068;8.818;2024-03-06T13:59:33;21.70;;;14.30;;
41966;SDS011;27656;53.068;8.818;2024-03-06T14:02:00;24.73;;;13.27;;
41966;SDS011;27656;53.068;8.818;2024-03-06T14:04:27;19.47;;;13.30;;
41966;SDS011;27656;53.068;8.818;2024-03-06T14:06:54;21.37;;;13.57;;
41966;SDS011;27656;53.068;8.818;2024-03-06T14:09:21;22.97;;;13.23;;
41966;SDS011;27656;53.068;8.818;2024-03-06T14:11:50;21.03;;;12.53;;
41966;SDS011;27656;53.068;8.818;2024-03-06T14:14:17;23.17;;;13.63;;
41966;SDS011;27656;53.068;8.818;2024-03-06T14:16:44;25.87;;;14.00;;
41966;SDS011;27656;53.068;8.818;2024-03-06T14:19:11;19.47;;;12.90;;
41966;SDS011;27656;53.068;8.818;2024-03-06T14:21:37;26.73;;;14.23;;
41966;SDS011;27656;53.068;8.818;2024-03-06T14:24:04;19.63;;;13.00;;
41966;SDS011;27656;53.068;8.818;2024-03-06T14:26:32;20.73;;;13.10;;
41966;SDS011;27656;53.068;8.818;2024-03-06T14:28:59;21.23;;;13.33;;
41966;SDS011;27656;53.068;8.818;2024-03-06T14:31:28;21.30;;;12.70;;
41966;SDS011;27656;53.068;8.818;2024-03-06T14:33:55;22.77;;;12.90;;
41966;SDS011;27656;53.068;8.818;2024-03-06T14:36:22;22.30;;;14.10;;
41966;SDS011;27656;53.068;8.818;2024-03-06T14:38:51;21.57;;;13.63;;
41966;SDS011;27656;53.068;8.818;2024-03-06T14:41:20;21.07;;;13.37;;